JZR722 HEAX-OKKK
Flight info
| Callsign | JZR722 |
|---|---|
| Flight time | 2h 6m |
| Altitude | 39000 |
| Route | CVO L677 MENLI N697 SISIK DCT KITOT DCT EGSIS L550 BOSID DCT KFR |
| Aircraft | A20N/M-SDE2E3FGHIRWXY/LB1 |
Departure
| Time | 2026-04-22 17:12 |
|---|---|
| Airport | Alexandria International Airport (HEAX) |
Arrival
| Time | 2026-04-22 19:19 |
|---|---|
| Airport | Kuwait International Airport (OKKK) |
| Time | Latitude | Longitude | Altitude | Speed | Heading |
|---|---|---|---|---|---|
| 2026-04-22 17:01 | 31.19162 | 29.95161 | 3 ft | 0 kts | 313° |
| 2026-04-22 17:04 | 31.19145 | 29.95178 | 3 ft | 4 kts | 334° |
| 2026-04-22 17:04 | 31.19122 | 29.95184 | 3 ft | 4 kts | 22° |
| 2026-04-22 17:05 | 31.19109 | 29.95172 | 6 ft | 1 kts | 57° |
| 2026-04-22 17:05 | 31.19107 | 29.95169 | 6 ft | 0 kts | 57° |
| 2026-04-22 17:10 | 31.19112 | 29.95180 | 4 ft | 5 kts | 62° |
| 2026-04-22 17:10 | 31.19120 | 29.95270 | 3 ft | 14 kts | 90° |
| 2026-04-22 17:10 | 31.19117 | 29.95384 | 3 ft | 13 kts | 111° |
| 2026-04-22 17:10 | 31.19042 | 29.95398 | 3 ft | 11 kts | 182° |
| 2026-04-22 17:11 | 31.18968 | 29.95400 | 3 ft | 10 kts | 178° |
| 2026-04-22 17:11 | 31.18899 | 29.95403 | 3 ft | 10 kts | 178° |
| 2026-04-22 17:11 | 31.18836 | 29.95394 | 2 ft | 8 kts | 206° |
| 2026-04-22 17:11 | 31.18738 | 29.95282 | 3 ft | 48 kts | 224° |
| 2026-04-22 17:12 | 31.18338 | 29.94817 | 5 ft | 113 kts | 225° |
| 2026-04-22 17:12 | 31.17638 | 29.94005 | 93 ft | 158 kts | 226° |
| 2026-04-22 17:12 | 31.16850 | 29.93114 | 662 ft | 155 kts | 225° |
| 2026-04-22 17:12 | 31.16057 | 29.92244 | 1262 ft | 162 kts | 224° |
| 2026-04-22 17:13 | 31.14919 | 29.91752 | 1532 ft | 197 kts | 179° |
| 2026-04-22 17:13 | 31.13614 | 29.92458 | 1734 ft | 226 kts | 132° |
| 2026-04-22 17:13 | 31.12878 | 29.94159 | 1993 ft | 253 kts | 102° |
| 2026-04-22 17:13 | 31.12619 | 29.96246 | 2624 ft | 264 kts | 98° |
| 2026-04-22 17:14 | 31.12053 | 29.98288 | 3467 ft | 267 kts | 115° |
| 2026-04-22 17:14 | 31.11110 | 30.00180 | 4377 ft | 269 kts | 125° |
| 2026-04-22 17:14 | 31.09965 | 30.01935 | 5193 ft | 274 kts | 130° |
| 2026-04-22 17:14 | 31.08700 | 30.03644 | 5920 ft | 281 kts | 132° |
| 2026-04-22 17:15 | 31.07830 | 30.04773 | 6473 ft | 284 kts | 133° |
| 2026-04-22 17:15 | 31.06036 | 30.07092 | 7461 ft | 291 kts | 132° |
| 2026-04-22 17:15 | 31.04697 | 30.08856 | 8283 ft | 295 kts | 131° |
| 2026-04-22 17:15 | 31.03346 | 30.10675 | 9129 ft | 299 kts | 131° |
| 2026-04-22 17:16 | 31.01988 | 30.12530 | 9976 ft | 303 kts | 130° |
| 2026-04-22 17:16 | 31.00599 | 30.14446 | 10525 ft | 319 kts | 130° |
| 2026-04-22 17:16 | 30.99121 | 30.16492 | 10831 ft | 342 kts | 130° |
| 2026-04-22 17:16 | 30.97535 | 30.18689 | 11130 ft | 364 kts | 130° |
| 2026-04-22 17:17 | 30.95866 | 30.21000 | 11462 ft | 381 kts | 130° |
| 2026-04-22 17:17 | 30.94137 | 30.23392 | 12024 ft | 389 kts | 130° |
| 2026-04-22 17:17 | 30.92375 | 30.25825 | 12711 ft | 395 kts | 130° |
| 2026-04-22 17:17 | 30.90594 | 30.28282 | 13439 ft | 399 kts | 130° |
| 2026-04-22 17:18 | 30.88801 | 30.30752 | 14168 ft | 403 kts | 130° |
| 2026-04-22 17:18 | 30.86980 | 30.33260 | 14800 ft | 407 kts | 130° |
| 2026-04-22 17:18 | 30.85142 | 30.35789 | 15449 ft | 411 kts | 130° |
| 2026-04-22 17:18 | 30.83283 | 30.38344 | 16101 ft | 416 kts | 130° |
| 2026-04-22 17:19 | 30.79531 | 30.43498 | 17412 ft | 423 kts | 130° |
| 2026-04-22 17:19 | 30.75680 | 30.48781 | 18633 ft | 432 kts | 130° |
| 2026-04-22 17:20 | 30.71743 | 30.54173 | 19685 ft | 441 kts | 131° |
| 2026-04-22 17:20 | 30.67735 | 30.59656 | 20714 ft | 450 kts | 131° |
| 2026-04-22 17:21 | 30.65696 | 30.62442 | 21197 ft | 454 kts | 131° |
| 2026-04-22 17:21 | 30.61567 | 30.68078 | 22176 ft | 462 kts | 131° |
| 2026-04-22 17:22 | 30.57392 | 30.73768 | 23106 ft | 470 kts | 131° |
| 2026-04-22 17:22 | 30.55264 | 30.76665 | 23581 ft | 474 kts | 131° |
| 2026-04-22 17:22 | 30.50951 | 30.82532 | 24369 ft | 481 kts | 132° |
| 2026-04-22 17:23 | 30.48774 | 30.85490 | 24789 ft | 484 kts | 132° |
| 2026-04-22 17:23 | 30.44369 | 30.91466 | 25599 ft | 490 kts | 132° |
| 2026-04-22 17:23 | 30.42142 | 30.94485 | 25996 ft | 493 kts | 132° |
| 2026-04-22 17:24 | 30.39906 | 30.97514 | 26369 ft | 496 kts | 132° |
| 2026-04-22 17:24 | 30.37655 | 31.00560 | 26731 ft | 499 kts | 132° |
| 2026-04-22 17:24 | 30.35391 | 31.03621 | 27099 ft | 502 kts | 133° |
| 2026-04-22 17:24 | 30.33115 | 31.06697 | 27458 ft | 504 kts | 133° |
| 2026-04-22 17:25 | 30.30838 | 31.09772 | 27945 ft | 503 kts | 133° |
| 2026-04-22 17:25 | 30.28566 | 31.12839 | 28438 ft | 502 kts | 133° |
| 2026-04-22 17:25 | 30.26292 | 31.15905 | 28923 ft | 501 kts | 133° |
| 2026-04-22 17:25 | 30.24021 | 31.18966 | 29392 ft | 501 kts | 133° |
| 2026-04-22 17:26 | 30.21752 | 31.22019 | 29847 ft | 500 kts | 133° |
| 2026-04-22 17:26 | 30.19485 | 31.25069 | 30251 ft | 500 kts | 133° |
| 2026-04-22 17:26 | 30.17219 | 31.28114 | 30624 ft | 499 kts | 133° |
| 2026-04-22 17:26 | 30.14955 | 31.31155 | 30974 ft | 499 kts | 133° |
| 2026-04-22 17:27 | 30.13452 | 31.33172 | 31203 ft | 499 kts | 133° |
| 2026-04-22 17:27 | 30.10439 | 31.37212 | 31638 ft | 500 kts | 134° |
| 2026-04-22 17:27 | 30.08208 | 31.40306 | 31973 ft | 501 kts | 131° |
| 2026-04-22 17:27 | 30.06079 | 31.43500 | 32313 ft | 502 kts | 129° |
| 2026-04-22 17:28 | 30.04005 | 31.46749 | 32630 ft | 503 kts | 129° |
| 2026-04-22 17:28 | 30.01953 | 31.50015 | 32944 ft | 503 kts | 128° |
| 2026-04-22 17:28 | 29.99896 | 31.53291 | 33268 ft | 503 kts | 129° |
| 2026-04-22 17:28 | 29.97837 | 31.56549 | 33617 ft | 503 kts | 129° |
| 2026-04-22 17:29 | 29.95767 | 31.59801 | 33912 ft | 503 kts | 129° |
| 2026-04-22 17:29 | 29.93683 | 31.63056 | 34170 ft | 503 kts | 130° |
| 2026-04-22 17:29 | 29.91594 | 31.66303 | 34405 ft | 504 kts | 130° |
| 2026-04-22 17:29 | 29.89507 | 31.69540 | 34641 ft | 504 kts | 130° |
| 2026-04-22 17:30 | 29.87415 | 31.72780 | 34872 ft | 504 kts | 130° |
| 2026-04-22 17:30 | 29.85314 | 31.76032 | 35095 ft | 504 kts | 130° |
| 2026-04-22 17:30 | 29.83216 | 31.79277 | 35315 ft | 505 kts | 130° |
| 2026-04-22 17:30 | 29.81148 | 31.82475 | 35549 ft | 505 kts | 130° |
| 2026-04-22 17:31 | 29.79258 | 31.85899 | 35755 ft | 509 kts | 120° |
| 2026-04-22 17:31 | 29.77853 | 31.89667 | 35938 ft | 514 kts | 110° |
| 2026-04-22 17:31 | 29.76790 | 31.93603 | 36138 ft | 515 kts | 108° |
| 2026-04-22 17:31 | 29.75841 | 31.97577 | 36320 ft | 516 kts | 106° |
| 2026-04-22 17:32 | 29.74955 | 32.01577 | 36507 ft | 517 kts | 105° |
| 2026-04-22 17:32 | 29.74087 | 32.05607 | 36693 ft | 517 kts | 105° |
| 2026-04-22 17:32 | 29.73226 | 32.09621 | 36860 ft | 518 kts | 105° |
| 2026-04-22 17:32 | 29.72352 | 32.13649 | 37019 ft | 519 kts | 106° |
| 2026-04-22 17:33 | 29.71768 | 32.16312 | 37129 ft | 519 kts | 106° |
| 2026-04-22 17:33 | 29.70578 | 32.21687 | 37363 ft | 519 kts | 106° |
| 2026-04-22 17:33 | 29.69677 | 32.25719 | 37536 ft | 519 kts | 107° |
| 2026-04-22 17:33 | 29.68773 | 32.29747 | 37692 ft | 520 kts | 107° |
| 2026-04-22 17:34 | 29.67868 | 32.33768 | 37842 ft | 520 kts | 107° |
| 2026-04-22 17:34 | 29.66970 | 32.37747 | 37992 ft | 521 kts | 107° |
| 2026-04-22 17:34 | 29.66060 | 32.41778 | 38127 ft | 521 kts | 107° |
| 2026-04-22 17:34 | 29.65149 | 32.45808 | 38293 ft | 521 kts | 107° |
| 2026-04-22 17:35 | 29.64237 | 32.49842 | 38426 ft | 521 kts | 107° |
| 2026-04-22 17:35 | 29.63321 | 32.53883 | 38561 ft | 522 kts | 107° |
| 2026-04-22 17:35 | 29.62405 | 32.57918 | 38687 ft | 522 kts | 107° |
| 2026-04-22 17:35 | 29.61489 | 32.61950 | 38786 ft | 522 kts | 107° |
| 2026-04-22 17:36 | 29.59629 | 32.70046 | 38949 ft | 523 kts | 108° |
| 2026-04-22 17:36 | 29.57967 | 32.76744 | 38973 ft | 524 kts | 109° |
| 2026-04-22 17:37 | 29.55582 | 32.86058 | 38965 ft | 522 kts | 109° |
| 2026-04-22 17:37 | 29.53862 | 32.92771 | 38964 ft | 522 kts | 109° |
| 2026-04-22 17:38 | 29.51827 | 33.00744 | 38966 ft | 523 kts | 109° |
| 2026-04-22 17:38 | 29.49783 | 33.08757 | 38971 ft | 523 kts | 109° |
| 2026-04-22 17:39 | 29.47734 | 33.16771 | 38960 ft | 523 kts | 109° |
| 2026-04-22 17:40 | 29.44648 | 33.28793 | 38980 ft | 523 kts | 109° |
| 2026-04-22 17:40 | 29.42595 | 33.36764 | 38979 ft | 524 kts | 109° |
| 2026-04-22 17:41 | 29.40523 | 33.44784 | 38976 ft | 524 kts | 109° |
| 2026-04-22 17:41 | 29.38449 | 33.52794 | 38977 ft | 524 kts | 110° |
| 2026-04-22 17:42 | 29.36367 | 33.60812 | 38979 ft | 524 kts | 110° |
| 2026-04-22 17:42 | 29.34283 | 33.68817 | 38979 ft | 524 kts | 110° |
| 2026-04-22 17:43 | 29.32195 | 33.76812 | 38976 ft | 524 kts | 110° |
| 2026-04-22 17:43 | 29.30112 | 33.84769 | 38977 ft | 524 kts | 110° |
| 2026-04-22 17:44 | 29.28011 | 33.92774 | 38977 ft | 524 kts | 110° |
| 2026-04-22 17:44 | 29.25908 | 34.00762 | 38977 ft | 524 kts | 110° |
| 2026-04-22 17:45 | 29.23796 | 34.08765 | 38974 ft | 525 kts | 110° |
| 2026-04-22 17:45 | 29.21680 | 34.16760 | 38974 ft | 525 kts | 110° |
| 2026-04-22 17:46 | 29.19555 | 34.24773 | 38967 ft | 525 kts | 110° |
| 2026-04-22 17:46 | 29.17425 | 34.32775 | 38956 ft | 526 kts | 110° |
| 2026-04-22 17:47 | 29.15286 | 34.40799 | 38953 ft | 526 kts | 110° |
| 2026-04-22 17:47 | 29.13160 | 34.48750 | 38917 ft | 526 kts | 110° |
| 2026-04-22 17:48 | 29.11017 | 34.56743 | 38930 ft | 525 kts | 110° |
| 2026-04-22 17:48 | 29.08876 | 34.64720 | 38916 ft | 525 kts | 110° |
| 2026-04-22 17:49 | 29.06721 | 34.72711 | 38918 ft | 525 kts | 111° |
| 2026-04-22 17:49 | 29.04583 | 34.80637 | 38902 ft | 525 kts | 109° |
| 2026-04-22 17:49 | 29.03858 | 34.84737 | 38903 ft | 528 kts | 97° |
| 2026-04-22 17:50 | 29.03698 | 34.88931 | 38910 ft | 529 kts | 91° |
| 2026-04-22 17:50 | 29.03852 | 34.97349 | 38910 ft | 531 kts | 88° |
| 2026-04-22 17:51 | 29.04206 | 35.05782 | 38923 ft | 531 kts | 88° |
| 2026-04-22 17:51 | 29.04560 | 35.14208 | 38926 ft | 530 kts | 88° |
| 2026-04-22 17:52 | 29.04879 | 35.22633 | 38934 ft | 530 kts | 88° |
| 2026-04-22 17:52 | 29.05177 | 35.31052 | 38944 ft | 531 kts | 88° |
| 2026-04-22 17:53 | 29.05468 | 35.39510 | 38949 ft | 532 kts | 88° |
| 2026-04-22 17:53 | 29.05752 | 35.47904 | 38949 ft | 532 kts | 88° |
| 2026-04-22 17:54 | 29.06034 | 35.56383 | 38949 ft | 533 kts | 89° |
| 2026-04-22 17:54 | 29.06313 | 35.64883 | 38949 ft | 535 kts | 89° |
| 2026-04-22 17:55 | 29.06586 | 35.73383 | 38945 ft | 535 kts | 89° |
| 2026-04-22 17:55 | 29.06853 | 35.81875 | 38931 ft | 535 kts | 89° |
| 2026-04-22 17:56 | 29.07116 | 35.90382 | 38927 ft | 534 kts | 89° |
| 2026-04-22 17:56 | 29.07372 | 35.98867 | 38926 ft | 534 kts | 89° |
| 2026-04-22 17:57 | 29.07621 | 36.07295 | 38919 ft | 534 kts | 89° |
| 2026-04-22 17:57 | 29.07867 | 36.15778 | 38916 ft | 534 kts | 89° |
| 2026-04-22 17:58 | 29.08107 | 36.24267 | 38916 ft | 534 kts | 89° |
| 2026-04-22 17:58 | 29.08343 | 36.32762 | 38921 ft | 533 kts | 89° |
| 2026-04-22 17:59 | 29.08572 | 36.41249 | 38922 ft | 533 kts | 89° |
| 2026-04-22 17:59 | 29.08787 | 36.49725 | 38927 ft | 533 kts | 90° |
| 2026-04-22 18:00 | 29.08901 | 36.56771 | 38927 ft | 533 kts | 90° |
| 2026-04-22 18:00 | 29.09017 | 36.66630 | 38954 ft | 533 kts | 90° |
| 2026-04-22 18:01 | 29.09115 | 36.75123 | 38929 ft | 533 kts | 90° |
| 2026-04-22 18:01 | 29.09215 | 36.83595 | 38942 ft | 532 kts | 90° |
| 2026-04-22 18:02 | 29.09311 | 36.92048 | 38951 ft | 532 kts | 90° |
| 2026-04-22 18:02 | 29.09403 | 37.00519 | 38943 ft | 532 kts | 91° |
| 2026-04-22 18:03 | 29.09489 | 37.08981 | 38963 ft | 531 kts | 91° |
| 2026-04-22 18:03 | 29.09569 | 37.17373 | 38968 ft | 531 kts | 91° |
| 2026-04-22 18:04 | 29.09644 | 37.25820 | 38966 ft | 531 kts | 91° |
| 2026-04-22 18:04 | 29.09714 | 37.34269 | 39003 ft | 530 kts | 91° |
| 2026-04-22 18:05 | 29.09778 | 37.42706 | 38976 ft | 531 kts | 91° |
| 2026-04-22 18:05 | 29.09839 | 37.51102 | 38973 ft | 531 kts | 91° |
| 2026-04-22 18:06 | 29.09939 | 37.59538 | 38974 ft | 531 kts | 91° |
| 2026-04-22 18:06 | 29.10058 | 37.67979 | 38974 ft | 531 kts | 91° |
| 2026-04-22 18:07 | 29.10152 | 37.75003 | 38973 ft | 531 kts | 91° |
| 2026-04-22 18:07 | 29.10273 | 37.84882 | 38976 ft | 531 kts | 91° |
| 2026-04-22 18:08 | 29.10368 | 37.93336 | 38977 ft | 531 kts | 91° |
| 2026-04-22 18:08 | 29.10457 | 38.01736 | 38984 ft | 532 kts | 91° |
| 2026-04-22 18:09 | 29.10542 | 38.10228 | 38992 ft | 533 kts | 91° |
| 2026-04-22 18:09 | 29.10621 | 38.18709 | 38987 ft | 533 kts | 91° |
| 2026-04-22 18:10 | 29.10696 | 38.27186 | 38997 ft | 534 kts | 91° |
| 2026-04-22 18:10 | 29.10765 | 38.35692 | 39000 ft | 535 kts | 91° |
| 2026-04-22 18:11 | 29.10828 | 38.44144 | 39006 ft | 535 kts | 91° |
| 2026-04-22 18:11 | 29.10885 | 38.52664 | 38999 ft | 535 kts | 91° |
| 2026-04-22 18:12 | 29.10938 | 38.61161 | 39006 ft | 534 kts | 91° |
| 2026-04-22 18:12 | 29.10977 | 38.68229 | 39003 ft | 535 kts | 91° |
| 2026-04-22 18:13 | 29.11026 | 38.78180 | 39002 ft | 536 kts | 92° |
| 2026-04-22 18:13 | 29.11062 | 38.86698 | 39003 ft | 536 kts | 92° |
| 2026-04-22 18:14 | 29.11092 | 38.95165 | 39009 ft | 536 kts | 92° |
| 2026-04-22 18:14 | 29.11110 | 39.03732 | 39003 ft | 535 kts | 92° |
| 2026-04-22 18:15 | 29.11121 | 39.12198 | 39014 ft | 535 kts | 92° |
| 2026-04-22 18:15 | 29.11126 | 39.20720 | 39010 ft | 535 kts | 92° |
| 2026-04-22 18:16 | 29.11127 | 39.29242 | 39016 ft | 535 kts | 92° |
| 2026-04-22 18:16 | 29.11123 | 39.37759 | 39026 ft | 535 kts | 92° |
| 2026-04-22 18:17 | 29.11113 | 39.46273 | 39013 ft | 535 kts | 92° |
| 2026-04-22 18:17 | 29.11098 | 39.54792 | 39022 ft | 535 kts | 92° |
| 2026-04-22 18:18 | 29.11077 | 39.63309 | 39028 ft | 536 kts | 92° |
| 2026-04-22 18:18 | 29.11051 | 39.71786 | 39028 ft | 537 kts | 92° |
| 2026-04-22 18:19 | 29.11020 | 39.80375 | 39026 ft | 537 kts | 93° |
| 2026-04-22 18:19 | 29.10983 | 39.88870 | 39026 ft | 537 kts | 93° |
| 2026-04-22 18:20 | 29.11130 | 39.97428 | 39025 ft | 538 kts | 90° |
| 2026-04-22 18:20 | 29.11473 | 40.05993 | 39018 ft | 539 kts | 89° |
| 2026-04-22 18:21 | 29.11820 | 40.14568 | 39026 ft | 540 kts | 90° |
| 2026-04-22 18:21 | 29.12134 | 40.23150 | 39026 ft | 540 kts | 90° |
| 2026-04-22 18:22 | 29.12427 | 40.31684 | 39026 ft | 540 kts | 90° |
| 2026-04-22 18:22 | 29.12713 | 40.40275 | 39026 ft | 541 kts | 90° |
| 2026-04-22 18:23 | 29.12994 | 40.48873 | 39006 ft | 541 kts | 90° |
| 2026-04-22 18:23 | 29.13218 | 40.56024 | 39035 ft | 540 kts | 92° |
| 2026-04-22 18:24 | 29.12750 | 40.68858 | 39017 ft | 538 kts | 96° |
| 2026-04-22 18:25 | 29.12077 | 40.81677 | 39010 ft | 538 kts | 97° |
| 2026-04-22 18:25 | 29.11621 | 40.90221 | 39014 ft | 538 kts | 97° |
| 2026-04-22 18:26 | 29.10942 | 41.02995 | 39002 ft | 539 kts | 97° |
| 2026-04-22 18:26 | 29.10482 | 41.11565 | 39002 ft | 539 kts | 97° |
| 2026-04-22 18:27 | 29.10018 | 41.20124 | 38999 ft | 539 kts | 97° |
| 2026-04-22 18:27 | 29.09547 | 41.28691 | 38997 ft | 539 kts | 97° |
| 2026-04-22 18:28 | 29.09073 | 41.37235 | 38980 ft | 538 kts | 97° |
| 2026-04-22 18:28 | 29.08595 | 41.45736 | 38987 ft | 539 kts | 97° |
| 2026-04-22 18:29 | 29.08112 | 41.54301 | 38982 ft | 539 kts | 97° |
| 2026-04-22 18:29 | 29.07627 | 41.62800 | 38978 ft | 539 kts | 97° |
| 2026-04-22 18:30 | 29.06885 | 41.75629 | 38978 ft | 539 kts | 97° |
| 2026-04-22 18:31 | 29.06384 | 41.84195 | 38971 ft | 539 kts | 97° |
| 2026-04-22 18:31 | 29.05877 | 41.92750 | 38991 ft | 539 kts | 97° |
| 2026-04-22 18:32 | 29.05367 | 42.01253 | 38958 ft | 537 kts | 97° |
| 2026-04-22 18:32 | 29.04847 | 42.09778 | 38964 ft | 538 kts | 97° |
| 2026-04-22 18:33 | 29.04321 | 42.18309 | 38963 ft | 538 kts | 97° |
| 2026-04-22 18:33 | 29.03788 | 42.26867 | 38960 ft | 539 kts | 97° |
| 2026-04-22 18:34 | 29.03254 | 42.35362 | 38957 ft | 539 kts | 97° |
| 2026-04-22 18:34 | 29.02711 | 42.43911 | 38945 ft | 539 kts | 97° |
| 2026-04-22 18:35 | 29.02163 | 42.52458 | 38953 ft | 539 kts | 97° |
| 2026-04-22 18:35 | 29.01610 | 42.61007 | 38963 ft | 539 kts | 97° |
| 2026-04-22 18:36 | 29.01054 | 42.69495 | 38946 ft | 539 kts | 97° |
| 2026-04-22 18:36 | 29.00491 | 42.78029 | 38945 ft | 538 kts | 97° |
| 2026-04-22 18:37 | 28.99922 | 42.86566 | 38947 ft | 538 kts | 97° |
| 2026-04-22 18:37 | 28.99347 | 42.95099 | 38945 ft | 538 kts | 98° |
| 2026-04-22 18:38 | 28.98768 | 43.03622 | 38939 ft | 538 kts | 98° |
| 2026-04-22 18:38 | 28.98185 | 43.12108 | 38957 ft | 538 kts | 98° |
| 2026-04-22 18:39 | 28.97297 | 43.24906 | 38968 ft | 538 kts | 98° |
| 2026-04-22 18:39 | 28.96700 | 43.33412 | 38958 ft | 537 kts | 98° |
| 2026-04-22 18:40 | 28.96098 | 43.41924 | 38953 ft | 537 kts | 98° |
| 2026-04-22 18:40 | 28.95489 | 43.50435 | 38956 ft | 538 kts | 98° |
| 2026-04-22 18:41 | 28.94874 | 43.58953 | 38957 ft | 539 kts | 98° |
| 2026-04-22 18:41 | 28.94254 | 43.67484 | 38954 ft | 539 kts | 98° |
| 2026-04-22 18:42 | 28.93631 | 43.75960 | 38955 ft | 539 kts | 98° |
| 2026-04-22 18:42 | 28.93000 | 43.84496 | 38942 ft | 539 kts | 98° |
| 2026-04-22 18:43 | 28.92362 | 43.93043 | 38960 ft | 539 kts | 98° |
| 2026-04-22 18:43 | 28.91720 | 44.01568 | 38961 ft | 539 kts | 98° |
| 2026-04-22 18:44 | 28.91071 | 44.10104 | 38957 ft | 539 kts | 98° |
| 2026-04-22 18:44 | 28.90423 | 44.18564 | 38957 ft | 539 kts | 98° |
| 2026-04-22 18:45 | 28.89765 | 44.27088 | 38955 ft | 539 kts | 98° |
| 2026-04-22 18:45 | 28.89101 | 44.35602 | 38957 ft | 539 kts | 98° |
| 2026-04-22 18:46 | 28.88432 | 44.44125 | 38945 ft | 539 kts | 98° |
| 2026-04-22 18:46 | 28.87756 | 44.52668 | 38971 ft | 539 kts | 98° |
| 2026-04-22 18:47 | 28.87082 | 44.61119 | 38955 ft | 538 kts | 98° |
| 2026-04-22 18:47 | 28.86399 | 44.69618 | 38955 ft | 538 kts | 98° |
| 2026-04-22 18:48 | 28.85745 | 44.78122 | 38955 ft | 539 kts | 97° |
| 2026-04-22 18:48 | 28.85203 | 44.86653 | 38952 ft | 539 kts | 97° |
| 2026-04-22 18:49 | 28.84681 | 44.95185 | 38954 ft | 539 kts | 97° |
| 2026-04-22 18:49 | 28.84144 | 45.03719 | 38952 ft | 539 kts | 97° |
| 2026-04-22 18:50 | 28.83591 | 45.12245 | 38955 ft | 539 kts | 97° |
| 2026-04-22 18:50 | 28.83033 | 45.20731 | 38957 ft | 539 kts | 97° |
| 2026-04-22 18:51 | 28.82467 | 45.29262 | 38952 ft | 539 kts | 97° |
| 2026-04-22 18:51 | 28.81896 | 45.37796 | 38938 ft | 539 kts | 97° |
| 2026-04-22 18:52 | 28.81319 | 45.46322 | 38958 ft | 540 kts | 97° |
| 2026-04-22 18:52 | 28.80737 | 45.54865 | 38958 ft | 540 kts | 97° |
| 2026-04-22 18:53 | 28.80150 | 45.63395 | 38959 ft | 540 kts | 97° |
| 2026-04-22 18:53 | 28.79558 | 45.71924 | 38958 ft | 539 kts | 97° |
| 2026-04-22 18:54 | 28.78966 | 45.80464 | 38938 ft | 539 kts | 97° |
| 2026-04-22 18:54 | 28.78374 | 45.88936 | 38843 ft | 538 kts | 97° |
| 2026-04-22 18:55 | 28.78076 | 45.93183 | 38339 ft | 536 kts | 97° |
| 2026-04-22 18:55 | 28.77776 | 45.97420 | 37743 ft | 535 kts | 97° |
| 2026-04-22 18:55 | 28.77476 | 46.01652 | 37145 ft | 535 kts | 97° |
| 2026-04-22 18:55 | 28.77174 | 46.05877 | 36542 ft | 535 kts | 97° |
| 2026-04-22 18:56 | 28.76870 | 46.10103 | 35933 ft | 535 kts | 97° |
| 2026-04-22 18:56 | 28.76565 | 46.14337 | 35331 ft | 536 kts | 97° |
| 2026-04-22 18:56 | 28.76258 | 46.18577 | 34748 ft | 536 kts | 97° |
| 2026-04-22 18:56 | 28.75950 | 46.22816 | 34155 ft | 537 kts | 97° |
| 2026-04-22 18:57 | 28.75639 | 46.27065 | 33466 ft | 537 kts | 97° |
| 2026-04-22 18:57 | 28.75334 | 46.31242 | 32857 ft | 536 kts | 97° |
| 2026-04-22 18:57 | 28.75020 | 46.35482 | 32234 ft | 535 kts | 97° |
| 2026-04-22 18:57 | 28.74701 | 46.39693 | 31609 ft | 534 kts | 97° |
| 2026-04-22 18:58 | 28.74376 | 46.43916 | 30975 ft | 533 kts | 97° |
| 2026-04-22 18:58 | 28.74050 | 46.48123 | 30348 ft | 532 kts | 97° |
| 2026-04-22 18:58 | 28.73723 | 46.52325 | 29653 ft | 532 kts | 98° |
| 2026-04-22 18:58 | 28.73395 | 46.56522 | 28877 ft | 531 kts | 98° |
| 2026-04-22 18:59 | 28.73066 | 46.60712 | 28115 ft | 531 kts | 98° |
| 2026-04-22 18:59 | 28.72736 | 46.64914 | 27335 ft | 531 kts | 98° |
| 2026-04-22 18:59 | 28.72406 | 46.69103 | 26538 ft | 531 kts | 98° |
| 2026-04-22 18:59 | 28.72074 | 46.73295 | 25743 ft | 531 kts | 98° |
| 2026-04-22 19:00 | 28.71741 | 46.77490 | 24970 ft | 531 kts | 98° |
| 2026-04-22 19:00 | 28.71408 | 46.81676 | 24358 ft | 532 kts | 98° |
| 2026-04-22 19:00 | 28.71075 | 46.85832 | 24049 ft | 534 kts | 98° |
| 2026-04-22 19:00 | 28.70740 | 46.90038 | 23966 ft | 533 kts | 98° |
| 2026-04-22 19:01 | 28.70410 | 46.94241 | 23954 ft | 531 kts | 98° |
| 2026-04-22 19:01 | 28.70083 | 46.98428 | 23957 ft | 530 kts | 98° |
| 2026-04-22 19:01 | 28.69759 | 47.02580 | 23617 ft | 524 kts | 98° |
| 2026-04-22 19:01 | 28.69435 | 47.06715 | 22877 ft | 520 kts | 98° |
| 2026-04-22 19:02 | 28.69114 | 47.10789 | 22100 ft | 512 kts | 97° |
| 2026-04-22 19:02 | 28.68795 | 47.14802 | 21265 ft | 505 kts | 97° |
| 2026-04-22 19:02 | 28.68480 | 47.18759 | 20466 ft | 498 kts | 97° |
| 2026-04-22 19:02 | 28.68167 | 47.22661 | 19704 ft | 491 kts | 97° |
| 2026-04-22 19:03 | 28.67857 | 47.26497 | 18964 ft | 484 kts | 97° |
| 2026-04-22 19:03 | 28.67551 | 47.30282 | 18241 ft | 476 kts | 97° |
| 2026-04-22 19:03 | 28.67248 | 47.34014 | 17391 ft | 470 kts | 97° |
| 2026-04-22 19:03 | 28.66948 | 47.37694 | 16552 ft | 463 kts | 96° |
| 2026-04-22 19:04 | 28.66651 | 47.41325 | 15766 ft | 456 kts | 96° |
| 2026-04-22 19:04 | 28.66359 | 47.44893 | 15003 ft | 449 kts | 96° |
| 2026-04-22 19:04 | 28.66073 | 47.48367 | 14240 ft | 443 kts | 96° |
| 2026-04-22 19:04 | 28.65788 | 47.51827 | 13479 ft | 436 kts | 96° |
| 2026-04-22 19:05 | 28.65508 | 47.55212 | 13046 ft | 420 kts | 96° |
| 2026-04-22 19:05 | 28.65240 | 47.58459 | 12751 ft | 402 kts | 96° |
| 2026-04-22 19:05 | 28.64984 | 47.61558 | 12512 ft | 385 kts | 96° |
| 2026-04-22 19:05 | 28.64737 | 47.64528 | 12282 ft | 368 kts | 96° |
| 2026-04-22 19:06 | 28.64499 | 47.67380 | 12073 ft | 353 kts | 96° |
| 2026-04-22 19:06 | 28.64274 | 47.70068 | 11874 ft | 338 kts | 97° |
| 2026-04-22 19:06 | 28.64054 | 47.72683 | 11518 ft | 326 kts | 97° |
| 2026-04-22 19:07 | 28.63626 | 47.77744 | 10550 ft | 316 kts | 97° |
| 2026-04-22 19:07 | 28.63416 | 47.80216 | 10064 ft | 312 kts | 97° |
| 2026-04-22 19:07 | 28.63208 | 47.82663 | 9527 ft | 309 kts | 97° |
| 2026-04-22 19:07 | 28.63002 | 47.85074 | 9006 ft | 303 kts | 97° |
| 2026-04-22 19:08 | 28.62807 | 47.87443 | 8495 ft | 298 kts | 94° |
| 2026-04-22 19:08 | 28.62871 | 47.89785 | 8011 ft | 295 kts | 82° |
| 2026-04-22 19:08 | 28.63395 | 47.92026 | 7690 ft | 291 kts | 67° |
| 2026-04-22 19:08 | 28.64410 | 47.93998 | 7561 ft | 288 kts | 50° |
| 2026-04-22 19:09 | 28.65861 | 47.95554 | 7444 ft | 287 kts | 33° |
| 2026-04-22 19:09 | 28.67636 | 47.96553 | 7314 ft | 284 kts | 16° |
| 2026-04-22 19:09 | 28.68899 | 47.96898 | 7239 ft | 282 kts | 9° |
| 2026-04-22 19:09 | 28.71476 | 47.97325 | 7077 ft | 282 kts | 7° |
| 2026-04-22 19:10 | 28.73419 | 47.97609 | 6953 ft | 281 kts | 7° |
| 2026-04-22 19:10 | 28.75352 | 47.97894 | 6840 ft | 280 kts | 7° |
| 2026-04-22 19:10 | 28.76635 | 47.98088 | 6762 ft | 279 kts | 7° |
| 2026-04-22 19:10 | 28.78560 | 47.98382 | 6641 ft | 278 kts | 8° |
| 2026-04-22 19:11 | 28.80469 | 47.98676 | 6524 ft | 277 kts | 8° |
| 2026-04-22 19:11 | 28.82379 | 47.98973 | 6406 ft | 276 kts | 8° |
| 2026-04-22 19:11 | 28.84285 | 47.99270 | 6282 ft | 275 kts | 8° |
| 2026-04-22 19:11 | 28.86177 | 47.99565 | 6161 ft | 274 kts | 8° |
| 2026-04-22 19:12 | 28.88060 | 47.99860 | 6034 ft | 273 kts | 9° |
| 2026-04-22 19:12 | 28.89938 | 48.00154 | 5908 ft | 272 kts | 8° |
| 2026-04-22 19:12 | 28.91817 | 48.00448 | 5782 ft | 271 kts | 8° |
| 2026-04-22 19:12 | 28.93693 | 48.00742 | 5662 ft | 271 kts | 8° |
| 2026-04-22 19:13 | 28.95537 | 48.01031 | 5530 ft | 271 kts | 9° |
| 2026-04-22 19:13 | 28.97400 | 48.01324 | 5419 ft | 270 kts | 9° |
| 2026-04-22 19:13 | 28.99255 | 48.01614 | 5290 ft | 268 kts | 9° |
| 2026-04-22 19:13 | 29.01059 | 48.01897 | 5169 ft | 255 kts | 9° |
| 2026-04-22 19:14 | 29.02772 | 48.02247 | 4973 ft | 246 kts | 19° |
| 2026-04-22 19:14 | 29.04297 | 48.03059 | 4740 ft | 236 kts | 32° |
| 2026-04-22 19:14 | 29.05653 | 48.04009 | 4534 ft | 223 kts | 33° |
| 2026-04-22 19:14 | 29.06951 | 48.04950 | 4169 ft | 219 kts | 33° |
| 2026-04-22 19:15 | 29.08221 | 48.05892 | 3776 ft | 217 kts | 33° |
| 2026-04-22 19:15 | 29.09462 | 48.06821 | 3537 ft | 207 kts | 31° |
| 2026-04-22 19:15 | 29.10764 | 48.07263 | 3321 ft | 197 kts | 360° |
| 2026-04-22 19:15 | 29.12049 | 48.06776 | 3016 ft | 192 kts | 331° |
| 2026-04-22 19:16 | 29.13058 | 48.05882 | 2865 ft | 176 kts | 321° |
| 2026-04-22 19:16 | 29.13923 | 48.04911 | 2493 ft | 175 kts | 317° |
| 2026-04-22 19:16 | 29.14747 | 48.03873 | 2081 ft | 177 kts | 316° |
| 2026-04-22 19:16 | 29.15621 | 48.02982 | 1801 ft | 161 kts | 330° |
| 2026-04-22 19:17 | 29.16585 | 48.02429 | 1473 ft | 150 kts | 338° |
| 2026-04-22 19:17 | 29.17469 | 48.01863 | 1268 ft | 142 kts | 334° |
| 2026-04-22 19:17 | 29.18340 | 48.01361 | 1044 ft | 141 kts | 339° |
| 2026-04-22 19:17 | 29.19239 | 48.00919 | 801 ft | 142 kts | 340° |
| 2026-04-22 19:18 | 29.20139 | 48.00449 | 486 ft | 142 kts | 337° |
| 2026-04-22 19:18 | 29.21034 | 47.99970 | 244 ft | 142 kts | 336° |
| 2026-04-22 19:18 | 29.21899 | 47.99510 | 166 ft | 128 kts | 336° |
| 2026-04-22 19:18 | 29.22584 | 47.99144 | 160 ft | 74 kts | 335° |
| 2026-04-22 19:19 | 29.22891 | 47.98992 | 157 ft | 43 kts | 336° |
| 2026-04-22 19:19 | 29.23149 | 47.98856 | 159 ft | 39 kts | 335° |
| 2026-04-22 19:19 | 29.23397 | 47.98724 | 160 ft | 39 kts | 335° |
| 2026-04-22 19:19 | 29.23645 | 47.98592 | 158 ft | 39 kts | 334° |
| 2026-04-22 19:20 | 29.23895 | 47.98459 | 154 ft | 32 kts | 334° |
| 2026-04-22 19:20 | 29.24016 | 47.98382 | 153 ft | 2 kts | 267° |
| 2026-04-22 19:20 | 29.23986 | 47.98311 | 154 ft | 12 kts | 241° |
| 2026-04-22 19:20 | 29.23951 | 47.98226 | 154 ft | 12 kts | 245° |
| 2026-04-22 19:21 | 29.23919 | 47.98144 | 155 ft | 10 kts | 245° |
| 2026-04-22 19:21 | 29.23892 | 47.98077 | 157 ft | 8 kts | 245° |
| 2026-04-22 19:21 | 29.23874 | 47.98032 | 159 ft | 5 kts | 245° |
| 2026-04-22 19:21 | 29.23857 | 47.97988 | 161 ft | 9 kts | 246° |
| 2026-04-22 19:22 | 29.23822 | 47.97895 | 163 ft | 14 kts | 246° |
| 2026-04-22 19:22 | 29.23770 | 47.97757 | 166 ft | 22 kts | 248° |
| 2026-04-22 19:22 | 29.23710 | 47.97599 | 167 ft | 21 kts | 247° |
| 2026-04-22 19:22 | 29.23653 | 47.97441 | 165 ft | 23 kts | 248° |
| 2026-04-22 19:23 | 29.23594 | 47.97282 | 168 ft | 21 kts | 246° |
| 2026-04-22 19:23 | 29.23535 | 47.97138 | 172 ft | 19 kts | 245° |
| 2026-04-22 19:23 | 29.23515 | 47.97020 | 176 ft | 10 kts | 320° |
| 2026-04-22 19:23 | 29.23555 | 47.97011 | 176 ft | 4 kts | 339° |
| 2026-04-22 19:24 | 29.23580 | 47.96998 | 176 ft | 5 kts | 335° |
| 2026-04-22 19:24 | 29.23607 | 47.96981 | 176 ft | 4 kts | 325° |
| 2026-04-22 19:24 | 29.23615 | 47.96960 | 176 ft | 3 kts | 255° |
| 2026-04-22 19:24 | 29.23586 | 47.96945 | 177 ft | 4 kts | 180° |
| 2026-04-22 19:25 | 29.23569 | 47.96952 | 178 ft | 1 kts | 159° |
| 2026-04-22 19:25 | 29.23565 | 47.96954 | 178 ft | 0 kts | 156° |
| 2026-04-22 19:25 | 29.23544 | 47.96966 | 178 ft | 0 kts | 153° |